Time;durP1;ratioP1;P1;durP2;ratioP2;P2;SDS_P1;SDS_P2;PMS_P1;PMS_P2;Temp;Humidity;BMP_temperature;BMP_pressure;BME280_temperature;BME280_humidity;BME280_pressure;Samples;Min_cycle;Max_cycle;Signal;HPM_P1;HPM_P2
2023/04/06 00:00:21;;;;;;;;;;;5.50;57.60;;;;;;9178243;19;19942;-63
2023/04/06 00:03:27;;;;;;;;;;;5.50;57.60;;;;;;9177878;19;20245;-63
2023/04/06 00:06:33;;;;;;;;;;;5.50;57.60;;;;;;9179294;19;20621;-62
2023/04/06 00:09:39;;;;;;;;;;;5.50;57.70;;;;;;9175439;19;19927;-63
2023/04/06 00:12:43;;;;;;;;;;;5.50;57.70;;;;;;9177868;19;19922;-63
2023/04/06 00:15:49;;;;;;;;;;;5.40;57.60;;;;;;9174640;19;19921;-63
2023/04/06 00:18:53;;;;;;;;;;;5.40;57.70;;;;;;9176309;19;20340;-63
2023/04/06 00:22:02;;;;;;;;;;;5.40;57.70;;;;;;9177472;19;19930;-63
2023/04/06 00:25:06;;;;;;;;;;;5.30;57.70;;;;;;9177406;19;19919;-63
2023/04/06 00:28:12;;;;;;;;;;;5.30;57.70;;;;;;9185422;19;19919;-62
2023/04/06 00:31:16;;;;;;;;;;;5.30;57.70;;;;;;9185598;19;19927;-63
2023/04/06 00:34:22;;;;;;;;;;;5.20;57.70;;;;;;9181983;19;19923;-62
2023/04/06 00:37:28;;;;;;;;;;;5.20;57.80;;;;;;9185492;19;19919;-64
2023/04/06 00:40:35;;;;;;;;;;;5.20;57.80;;;;;;9183517;19;19929;-63
2023/04/06 00:43:39;;;;;;;;;;;5.10;57.70;;;;;;9180762;19;19919;-64
2023/04/06 00:46:45;;;;;;;;;;;5.10;57.90;;;;;;9183368;19;19918;-63
2023/04/06 00:49:49;;;;;;;;;;;5.10;57.80;;;;;;9184891;19;19914;-63
2023/04/06 00:52:57;;;;;;;;;;;5.00;57.80;;;;;;9184265;19;19922;-63
2023/04/06 00:56:03;;;;;;;;;;;5.00;57.80;;;;;;9180314;19;19915;-63
2023/04/06 00:59:19;;;;;;;;;;;4.90;57.80;;;;;;9180922;19;19929;-64
2023/04/06 01:02:23;;;;;;;;;;;4.90;57.90;;;;;;9179193;19;20363;-63
2023/04/06 01:05:31;;;;;;;;;;;4.90;57.90;;;;;;9177819;19;19922;-63
2023/04/06 01:08:38;;;;;;;;;;;4.80;57.90;;;;;;9176853;19;19982;-63
2023/04/06 01:11:55;;;;;;;;;;;4.80;58.00;;;;;;9179012;19;20478;-63
2023/04/06 01:15:06;;;;;;;;;;;4.70;57.90;;;;;;9178623;19;20294;-63
2023/04/06 01:18:14;;;;;;;;;;;4.70;58.00;;;;;;9182712;19;19922;-63
2023/04/06 01:21:25;;;;;;;;;;;4.60;57.90;;;;;;9182147;19;20269;-63
2023/04/06 01:24:51;;;;;;;;;;;4.60;58.00;;;;;;9184288;19;19922;-64
2023/04/06 01:28:04;;;;;;;;;;;4.60;58.10;;;;;;9182381;19;19922;-64
2023/04/06 01:31:32;;;;;;;;;;;4.60;58.10;;;;;;9181344;19;19911;-64
2023/04/06 01:34:36;;;;;;;;;;;4.50;58.00;;;;;;9180718;19;19922;-64
2023/04/06 01:37:45;;;;;;;;;;;4.40;58.00;;;;;;9180438;19;19946;-63
2023/04/06 01:40:55;;;;;;;;;;;4.40;58.10;;;;;;9183198;19;19919;-63
2023/04/06 01:44:03;;;;;;;;;;;4.40;58.10;;;;;;9176859;19;19922;-63
2023/04/06 01:47:09;;;;;;;;;;;4.30;58.10;;;;;;9181461;19;20264;-63
2023/04/06 01:50:16;;;;;;;;;;;4.30;58.10;;;;;;9183028;19;19919;-62
2023/04/06 01:53:22;;;;;;;;;;;4.20;58.10;;;;;;9181314;19;19926;-62
2023/04/06 01:56:32;;;;;;;;;;;4.20;58.20;;;;;;9181649;19;19918;-64
2023/04/06 01:59:50;;;;;;;;;;;4.20;58.20;;;;;;9180806;19;19915;-64
2023/04/06 02:03:02;;;;;;;;;;;4.20;58.20;;;;;;9181141;19;20244;-63
2023/04/06 02:06:08;;;;;;;;;;;4.10;58.20;;;;;;9180494;19;19918;-63
2023/04/06 02:09:18;;;;;;;;;;;4.10;58.30;;;;;;9178146;19;20276;-64
2023/04/06 02:12:24;;;;;;;;;;;4.10;58.30;;;;;;9180664;19;19923;-64
2023/04/06 02:15:31;;;;;;;;;;;4.00;58.20;;;;;;9177763;19;20273;-63
2023/04/06 02:18:35;;;;;;;;;;;4.00;58.30;;;;;;9180468;19;19929;-63
2023/04/06 02:21:41;;;;;;;;;;;4.00;58.30;;;;;;9180252;19;20345;-63
2023/04/06 02:24:46;;;;;;;;;;;3.90;58.30;;;;;;9180452;19;19949;-64
2023/04/06 02:27:54;;;;;;;;;;;3.90;58.40;;;;;;9178887;19;19922;-64
2023/04/06 02:30:58;;;;;;;;;;;3.90;58.40;;;;;;9179508;19;20520;-63
2023/04/06 02:34:07;;;;;;;;;;;3.90;58.40;;;;;;9181087;19;19923;-64
2023/04/06 02:37:11;;;;;;;;;;;3.80;58.40;;;;;;9179915;19;19927;-63
2023/04/06 02:40:17;;;;;;;;;;;3.80;58.40;;;;;;9181305;19;19923;-63
2023/04/06 02:43:23;;;;;;;;;;;3.80;58.40;;;;;;9175161;19;19946;-63
2023/04/06 02:46:34;;;;;;;;;;;3.80;58.40;;;;;;9179920;19;19919;-63
2023/04/06 02:49:39;;;;;;;;;;;3.80;58.50;;;;;;9176280;19;20291;-63
2023/04/06 02:52:45;;;;;;;;;;;3.70;58.40;;;;;;9180537;19;19929;-63
2023/04/06 02:55:49;;;;;;;;;;;3.70;58.40;;;;;;9176832;19;19914;-63
2023/04/06 02:58:58;;;;;;;;;;;3.70;58.50;;;;;;9179056;19;19925;-64
2023/04/06 03:02:05;;;;;;;;;;;3.70;58.60;;;;;;9179160;19;19978;-63
2023/04/06 03:05:12;;;;;;;;;;;3.60;59.10;;;;;;9180181;19;20768;-63
2023/04/06 03:08:19;;;;;;;;;;;3.60;58.50;;;;;;9177848;19;20383;-63
2023/04/06 03:11:26;;;;;;;;;;;3.60;58.50;;;;;;9178728;19;19938;-64
2023/04/06 03:14:32;;;;;;;;;;;3.60;58.60;;;;;;9177627;19;19923;-63
2023/04/06 03:17:38;;;;;;;;;;;3.60;58.60;;;;;;9178800;19;19919;-63
2023/04/06 03:20:48;;;;;;;;;;;3.50;58.60;;;;;;9177822;19;19915;-63
2023/04/06 03:23:55;;;;;;;;;;;3.50;58.60;;;;;;9178608;19;20667;-63
2023/04/06 03:27:00;;;;;;;;;;;3.50;58.60;;;;;;9177998;19;19926;-63
2023/04/06 03:30:09;;;;;;;;;;;3.50;58.60;;;;;;9178431;19;19930;-63
2023/04/06 03:33:13;;;;;;;;;;;3.40;58.60;;;;;;9179291;19;19925;-63
2023/04/06 03:36:28;;;;;;;;;;;3.40;58.60;;;;;;9174865;19;19914;-63
2023/04/06 03:39:34;;;;;;;;;;;3.40;58.60;;;;;;9177969;19;19929;-63
2023/04/06 03:42:40;;;;;;;;;;;3.40;58.70;;;;;;9174184;19;19923;-62
2023/04/06 03:45:51;;;;;;;;;;;3.40;58.80;;;;;;9177186;19;19918;-63
2023/04/06 03:48:58;;;;;;;;;;;3.30;58.80;;;;;;9177524;19;19922;-63
2023/04/06 03:52:02;;;;;;;;;;;3.30;58.80;;;;;;9176966;19;20002;-63
2023/04/06 03:55:09;;;;;;;;;;;3.20;58.70;;;;;;9177253;19;19922;-63
2023/04/06 03:58:13;;;;;;;;;;;3.20;58.80;;;;;;9177572;19;20253;-62
2023/04/06 04:01:21;;;;;;;;;;;3.20;58.80;;;;;;9180953;19;19925;-63
2023/04/06 04:04:25;;;;;;;;;;;3.20;58.80;;;;;;9185583;19;19948;-64
2023/04/06 04:07:30;;;;;;;;;;;3.20;58.80;;;;;;9185692;19;19926;-64
2023/04/06 04:10:34;;;;;;;;;;;3.10;58.80;;;;;;9184770;19;19921;-64
2023/04/06 04:13:40;;;;;;;;;;;3.10;58.80;;;;;;9184694;19;19923;-64
2023/04/06 04:16:47;;;;;;;;;;;3.10;58.90;;;;;;9181762;19;19955;-64
2023/04/06 04:19:54;;;;;;;;;;;3.10;58.90;;;;;;9183005;19;19919;-64
2023/04/06 04:22:58;;;;;;;;;;;3.10;59.00;;;;;;9184177;19;19922;-63
2023/04/06 04:26:04;;;;;;;;;;;3.10;59.00;;;;;;9185633;19;19923;-63
2023/04/06 04:29:08;;;;;;;;;;;3.10;59.00;;;;;;9183931;19;19929;-64
2023/04/06 04:32:18;;;;;;;;;;;3.00;59.00;;;;;;9185494;19;19918;-63
2023/04/06 04:35:23;;;;;;;;;;;3.00;59.00;;;;;;9182621;19;19922;-63
2023/04/06 04:38:30;;;;;;;;;;;3.00;59.00;;;;;;9183627;19;19925;-64
2023/04/06 04:41:35;;;;;;;;;;;3.00;59.00;;;;;;9183397;19;20345;-64
2023/04/06 04:44:41;;;;;;;;;;;2.90;59.00;;;;;;9180592;19;19918;-64
2023/04/06 04:47:47;;;;;;;;;;;3.00;59.30;;;;;;9182202;19;19919;-63
2023/04/06 04:50:55;;;;;;;;;;;3.00;59.10;;;;;;9182694;19;19927;-64
2023/04/06 04:54:02;;;;;;;;;;;2.90;59.00;;;;;;9184656;19;19955;-63
2023/04/06 04:57:10;;;;;;;;;;;2.90;59.10;;;;;;9183157;19;19919;-64
2023/04/06 05:00:18;;;;;;;;;;;2.90;59.20;;;;;;9184396;19;20296;-63
2023/04/06 05:03:27;;;;;;;;;;;2.90;59.70;;;;;;9184898;19;19923;-63
2023/04/06 05:06:41;;;;;;;;;;;2.90;59.20;;;;;;9184378;19;19927;-63
2023/04/06 05:09:48;;;;;;;;;;;2.80;59.10;;;;;;9179728;19;19922;-63
2023/04/06 05:12:53;;;;;;;;;;;2.80;59.10;;;;;;9177848;19;19919;-64
2023/04/06 05:15:59;;;;;;;;;;;2.80;59.10;;;;;;9178833;19;19918;-63
2023/04/06 05:19:11;;;;;;;;;;;2.90;59.20;;;;;;9180688;19;19974;-63
2023/04/06 05:22:22;;;;;;;;;;;2.80;59.20;;;;;;9180545;19;20270;-63
2023/04/06 05:25:35;;;;;;;;;;;2.80;59.20;;;;;;9181358;19;19918;-63
2023/04/06 05:28:51;;;;;;;;;;;2.80;59.20;;;;;;9181815;19;19922;-63
2023/04/06 05:31:55;;;;;;;;;;;2.90;59.30;;;;;;9181808;19;19971;-63
2023/04/06 05:35:04;;;;;;;;;;;2.80;59.80;;;;;;9181797;19;19991;-63
2023/04/06 05:38:10;;;;;;;;;;;2.90;59.30;;;;;;9181952;19;20059;-64
2023/04/06 05:41:16;;;;;;;;;;;2.90;59.30;;;;;;9182071;19;19923;-63
2023/04/06 05:44:20;;;;;;;;;;;2.90;59.90;;;;;;9177641;19;19919;-62
2023/04/06 05:47:33;;;;;;;;;;;2.90;59.50;;;;;;9181251;19;20337;-63
2023/04/06 05:50:51;;;;;;;;;;;2.80;59.30;;;;;;9181382;19;20271;-63
2023/04/06 05:54:02;;;;;;;;;;;2.90;59.40;;;;;;9181588;19;19929;-63
2023/04/06 05:57:07;;;;;;;;;;;2.90;59.40;;;;;;9177781;19;19923;-62
2023/04/06 06:00:14;;;;;;;;;;;2.90;59.40;;;;;;9180673;19;19915;-62
2023/04/06 06:03:27;;;;;;;;;;;2.90;59.40;;;;;;9180495;19;19915;-63
2023/04/06 06:06:37;;;;;;;;;;;3.00;59.50;;;;;;9180739;19;19925;-62
2023/04/06 06:09:53;;;;;;;;;;;3.00;59.50;;;;;;9177312;19;19918;-62
2023/04/06 06:13:05;;;;;;;;;;;3.10;59.50;;;;;;9180847;19;19922;-61
2023/04/06 06:16:10;;;;;;;;;;;3.10;59.60;;;;;;9177027;19;19922;-62
2023/04/06 06:19:22;;;;;;;;;;;3.20;59.60;;;;;;9180418;19;19918;-62
2023/04/06 06:22:30;;;;;;;;;;;3.20;59.60;;;;;;9161184;19;19930;-62
2023/04/06 06:25:36;;;;;;;;;;;3.30;59.60;;;;;;9166153;19;19927;-62
2023/04/06 06:28:41;;;;;;;;;;;3.40;59.70;;;;;;9167393;19;19923;-62
2023/04/06 06:31:49;;;;;;;;;;;3.50;59.80;;;;;;9165159;19;20007;-62
2023/04/06 06:34:53;;;;;;;;;;;3.60;59.80;;;;;;9169034;19;19915;-63
2023/04/06 06:38:02;;;;;;;;;;;3.70;59.80;;;;;;9168044;19;20340;-62
2023/04/06 06:41:06;;;;;;;;;;;3.80;59.80;;;;;;9166975;19;19934;-63
2023/04/06 06:44:16;;;;;;;;;;;4.00;59.90;;;;;;9161631;19;19927;-63
2023/04/06 06:47:20;;;;;;;;;;;4.10;59.90;;;;;;9168302;19;19990;-62
2023/04/06 06:50:26;;;;;;;;;;;4.30;59.90;;;;;;9171608;19;19919;-63
2023/04/06 06:53:32;;;;;;;;;;;4.40;59.90;;;;;;9172667;19;19922;-64
2023/04/06 06:56:38;;;;;;;;;;;4.60;59.90;;;;;;9168776;19;19930;-63
2023/04/06 06:59:43;;;;;;;;;;;4.70;59.90;;;;;;9173003;19;19925;-62
2023/04/06 07:02:49;;;;;;;;;;;4.80;60.00;;;;;;9161919;19;20613;-63
2023/04/06 07:05:54;;;;;;;;;;;5.00;60.00;;;;;;9174046;19;19934;-63
2023/04/06 07:09:04;;;;;;;;;;;5.10;59.90;;;;;;9170431;19;19918;-63
2023/04/06 07:12:08;;;;;;;;;;;5.30;60.00;;;;;;9174426;19;19926;-63
2023/04/06 07:15:15;;;;;;;;;;;5.50;60.00;;;;;;9171659;19;19929;-62
2023/04/06 07:18:19;;;;;;;;;;;5.60;60.00;;;;;;9177758;19;20265;-62
2023/04/06 07:21:26;;;;;;;;;;;5.80;60.00;;;;;;9176110;19;19938;-68
2023/04/06 07:24:32;;;;;;;;;;;5.90;60.00;;;;;;9177197;19;19930;-69
2023/04/06 07:27:37;;;;;;;;;;;6.10;60.00;;;;;;9174061;19;20772;-69
2023/04/06 07:30:41;;;;;;;;;;;6.30;60.00;;;;;;9172170;19;19918;-68
2023/04/06 07:33:49;;;;;;;;;;;6.40;60.00;;;;;;9171113;19;19918;-66
2023/04/06 07:36:56;;;;;;;;;;;6.60;60.10;;;;;;9165327;19;19922;-66
2023/04/06 07:40:04;;;;;;;;;;;6.70;60.10;;;;;;9169762;19;19914;-73
2023/04/06 07:43:08;;;;;;;;;;;6.90;60.10;;;;;;9169511;19;19915;-72
2023/04/06 07:46:15;;;;;;;;;;;7.00;60.00;;;;;;9170260;19;19918;-72
2023/04/06 07:49:20;;;;;;;;;;;7.20;60.10;;;;;;9171626;19;19952;-71
2023/04/06 07:52:27;;;;;;;;;;;7.40;60.20;;;;;;9169547;19;19919;-71
2023/04/06 07:55:33;;;;;;;;;;;7.50;60.10;;;;;;9171033;19;19926;-72
2023/04/06 07:58:39;;;;;;;;;;;7.70;60.10;;;;;;9168367;19;19926;-74
2023/04/06 08:01:43;;;;;;;;;;;7.80;60.10;;;;;;9166282;19;20258;-71
2023/04/06 08:04:49;;;;;;;;;;;8.00;60.10;;;;;;9175611;19;19926;-70
2023/04/06 08:07:53;;;;;;;;;;;8.20;60.10;;;;;;9171742;19;19923;-69
2023/04/06 08:11:02;;;;;;;;;;;8.30;60.10;;;;;;9168221;19;19933;-70
2023/04/06 08:14:06;;;;;;;;;;;8.50;60.20;;;;;;9173664;19;19956;-69
2023/04/06 08:17:13;;;;;;;;;;;8.60;60.10;;;;;;9172517;19;19955;-72
2023/04/06 08:20:17;;;;;;;;;;;8.80;60.10;;;;;;9170472;19;19924;-71
2023/04/06 08:23:23;;;;;;;;;;;8.90;60.10;;;;;;9169262;19;20329;-72
2023/04/06 08:26:28;;;;;;;;;;;9.10;60.10;;;;;;9171481;19;19929;-71
2023/04/06 08:29:34;;;;;;;;;;;9.30;60.10;;;;;;9171104;19;19925;-72
2023/04/06 08:32:38;;;;;;;;;;;9.50;60.20;;;;;;9168599;19;19914;-70
2023/04/06 08:35:44;;;;;;;;;;;9.70;60.10;;;;;;9168701;19;20345;-71
2023/04/06 08:38:48;;;;;;;;;;;9.90;60.00;;;;;;9169624;19;19923;-70
2023/04/06 08:41:59;;;;;;;;;;;10.10;60.00;;;;;;9162267;19;19919;-70
2023/04/06 08:45:03;;;;;;;;;;;10.30;60.00;;;;;;9165886;19;20343;-70
2023/04/06 08:48:10;;;;;;;;;;;10.50;60.00;;;;;;9168932;19;19923;-70
2023/04/06 08:51:14;;;;;;;;;;;10.80;60.00;;;;;;9175588;19;19955;-70
2023/04/06 08:54:20;;;;;;;;;;;11.00;59.90;;;;;;9177538;19;20273;-72
2023/04/06 08:57:26;;;;;;;;;;;11.20;59.80;;;;;;9171485;19;19927;-72
2023/04/06 09:00:33;;;;;;;;;;;11.30;59.70;;;;;;9175418;19;19922;-72
2023/04/06 09:03:38;;;;;;;;;;;11.50;59.70;;;;;;9172485;19;19919;-72
2023/04/06 09:06:45;;;;;;;;;;;11.60;59.60;;;;;;9175553;19;19926;-69
2023/04/06 09:09:51;;;;;;;;;;;11.70;59.70;;;;;;9177968;19;19915;-71
2023/04/06 09:13:07;;;;;;;;;;;11.80;59.60;;;;;;9176304;19;19918;-71
2023/04/06 09:16:11;;;;;;;;;;;11.90;59.60;;;;;;9173601;19;19919;-72
2023/04/06 09:19:17;;;;;;;;;;;12.00;59.60;;;;;;9173099;19;19914;-71
2023/04/06 09:22:21;;;;;;;;;;;12.10;59.50;;;;;;9176858;19;19918;-70
2023/04/06 09:25:27;;;;;;;;;;;12.10;59.40;;;;;;9174888;19;19914;-71
2023/04/06 09:28:42;;;;;;;;;;;12.20;59.40;;;;;;9175957;19;19918;-71
2023/04/06 09:31:48;;;;;;;;;;;12.20;59.40;;;;;;9176532;19;19922;-71
2023/04/06 09:34:52;;;;;;;;;;;12.30;59.40;;;;;;9174273;19;19978;-71
2023/04/06 09:37:58;;;;;;;;;;;12.30;59.40;;;;;;9172949;19;19919;-70
2023/04/06 09:41:01;;;;;;;;;;;12.40;59.40;;;;;;9177127;19;19921;-70
2023/04/06 09:44:10;;;;;;;;;;;12.40;59.40;;;;;;9175834;19;19978;-71
2023/04/06 09:47:14;;;;;;;;;;;12.40;59.40;;;;;;9176168;19;19923;-71
2023/04/06 09:50:21;;;;;;;;;;;12.40;59.40;;;;;;9176538;19;19915;-70
2023/04/06 09:53:28;;;;;;;;;;;12.50;59.40;;;;;;9175751;19;20257;-69
2023/04/06 09:56:39;;;;;;;;;;;12.60;59.40;;;;;;9172857;19;19915;-71
2023/04/06 09:59:47;;;;;;;;;;;12.60;59.40;;;;;;9174346;19;19926;-72
2023/04/06 10:02:58;;;;;;;;;;;12.70;59.40;;;;;;9168849;19;19914;-72
2023/04/06 10:06:04;;;;;;;;;;;12.80;59.40;;;;;;9173075;19;19928;-73
2023/04/06 10:09:10;;;;;;;;;;;12.80;59.40;;;;;;9173674;19;19918;-74
2023/04/06 10:12:19;;;;;;;;;;;12.90;59.30;;;;;;9174657;19;19986;-67
2023/04/06 10:15:27;;;;;;;;;;;13.00;59.30;;;;;;9172741;19;19930;-69
2023/04/06 10:18:31;;;;;;;;;;;13.10;59.40;;;;;;9172198;19;20395;-69
2023/04/06 10:21:37;;;;;;;;;;;13.20;59.30;;;;;;9175344;19;21710;-70
2023/04/06 10:24:41;;;;;;;;;;;13.20;59.20;;;;;;9175865;19;19927;-70
2023/04/06 10:27:47;;;;;;;;;;;13.30;59.20;;;;;;9172800;19;19919;-70
2023/04/06 10:30:58;;;;;;;;;;;13.40;59.20;;;;;;9173404;19;19923;-70
2023/04/06 10:34:04;;;;;;;;;;;13.50;59.20;;;;;;9175173;19;19919;-68
2023/04/06 10:37:18;;;;;;;;;;;13.60;59.20;;;;;;9173991;19;19923;-70
2023/04/06 10:40:29;;;;;;;;;;;13.70;59.20;;;;;;9173566;19;19922;-70
2023/04/06 10:43:35;;;;;;;;;;;13.80;59.10;;;;;;9172826;19;19927;-70
2023/04/06 10:46:53;;;;;;;;;;;13.90;59.00;;;;;;9173339;19;19918;-69
2023/04/06 10:49:57;;;;;;;;;;;14.00;58.90;;;;;;9173986;19;20225;-71
2023/04/06 10:53:04;;;;;;;;;;;14.10;58.90;;;;;;9175333;19;20360;-69
2023/04/06 10:56:11;;;;;;;;;;;14.20;58.90;;;;;;9174485;19;19931;-70
2023/04/06 10:59:20;;;;;;;;;;;14.30;58.80;;;;;;9171006;19;20341;-70
2023/04/06 11:02:26;;;;;;;;;;;14.30;58.70;;;;;;9169428;19;20754;-68
2023/04/06 11:05:32;;;;;;;;;;;14.40;58.70;;;;;;9173173;19;19915;-69
2023/04/06 11:08:37;;;;;;;;;;;14.40;58.70;;;;;;9171802;19;19922;-69
2023/04/06 11:11:43;;;;;;;;;;;14.50;58.70;;;;;;9171104;19;19922;-68
2023/04/06 11:14:55;;;;;;;;;;;14.60;58.60;;;;;;9172844;19;19922;-68
2023/04/06 11:18:05;;;;;;;;;;;14.70;58.60;;;;;;9168095;19;19926;-68
2023/04/06 11:21:09;;;;;;;;;;;14.70;58.60;;;;;;9174084;19;19956;-69
2023/04/06 11:24:16;;;;;;;;;;;14.80;58.50;;;;;;9169577;19;19926;-70
2023/04/06 11:27:20;;;;;;;;;;;14.90;58.50;;;;;;9170034;19;19922;-71
2023/04/06 11:30:26;;;;;;;;;;;15.00;58.50;;;;;;9175749;19;19919;-70
2023/04/06 11:33:36;;;;;;;;;;;15.10;58.50;;;;;;9179275;19;19926;-70
2023/04/06 11:36:43;;;;;;;;;;;15.20;58.40;;;;;;9174061;19;19930;-70
2023/04/06 11:39:49;;;;;;;;;;;15.20;58.40;;;;;;9173935;19;19929;-69
2023/04/06 11:42:55;;;;;;;;;;;15.30;58.40;;;;;;9165072;19;19923;-69
2023/04/06 11:46:01;;;;;;;;;;;15.40;58.30;;;;;;9167400;19;19937;-69
2023/04/06 11:49:09;;;;;;;;;;;15.40;58.20;;;;;;9166254;19;19929;-69
2023/04/06 11:52:16;;;;;;;;;;;15.50;58.20;;;;;;9167221;19;19915;-69
2023/04/06 11:55:22;;;;;;;;;;;15.60;58.20;;;;;;9163861;19;19926;-69
2023/04/06 11:58:27;;;;;;;;;;;15.60;58.10;;;;;;9168515;19;19938;-69
2023/04/06 12:01:32;;;;;;;;;;;15.70;58.10;;;;;;9170093;19;19910;-69
2023/04/06 12:04:44;;;;;;;;;;;15.70;58.10;;;;;;9170331;19;19968;-69
2023/04/06 12:07:50;;;;;;;;;;;15.80;58.10;;;;;;9170769;19;19918;-67
2023/04/06 12:10:54;;;;;;;;;;;15.80;58.00;;;;;;9162277;19;19922;-67
2023/04/06 12:14:01;;;;;;;;;;;15.90;58.10;;;;;;9167593;19;20341;-67
2023/04/06 12:17:05;;;;;;;;;;;15.90;58.00;;;;;;9166205;19;19915;-69
2023/04/06 12:20:13;;;;;;;;;;;15.90;58.00;;;;;;9170634;19;19915;-70
2023/04/06 12:23:29;;;;;;;;;;;15.90;57.90;;;;;;9172960;19;19926;-71
2023/04/06 12:26:35;;;;;;;;;;;15.90;58.00;;;;;;9170249;19;19922;-68
2023/04/06 12:29:39;;;;;;;;;;;16.00;57.90;;;;;;9172150;19;19926;-69
2023/04/06 12:32:45;;;;;;;;;;;16.00;58.00;;;;;;9175132;19;19915;-68
2023/04/06 12:35:52;;;;;;;;;;;16.00;57.90;;;;;;9169773;19;20372;-68
2023/04/06 12:38:58;;;;;;;;;;;16.00;57.90;;;;;;9172059;19;20345;-68
2023/04/06 12:42:03;;;;;;;;;;;16.00;57.90;;;;;;9170925;19;19951;-69
2023/04/06 12:45:09;;;;;;;;;;;16.10;57.90;;;;;;9171842;19;19941;-70
2023/04/06 12:48:13;;;;;;;;;;;16.00;57.80;;;;;;9171596;19;19930;-70
2023/04/06 12:51:21;;;;;;;;;;;16.00;57.80;;;;;;9170112;19;19922;-71
2023/04/06 12:54:26;;;;;;;;;;;16.00;57.80;;;;;;9170522;19;20537;-70
2023/04/06 12:57:32;;;;;;;;;;;16.00;57.80;;;;;;9170022;19;19958;-70
2023/04/06 13:00:36;;;;;;;;;;;16.00;57.80;;;;;;9168800;19;19915;-70
2023/04/06 13:03:42;;;;;;;;;;;16.00;57.70;;;;;;9167292;19;20320;-70
2023/04/06 13:06:48;;;;;;;;;;;16.00;57.70;;;;;;9169016;19;19922;-68
2023/04/06 13:09:54;;;;;;;;;;;16.00;57.60;;;;;;9166558;19;19926;-68
2023/04/06 13:12:58;;;;;;;;;;;16.00;57.70;;;;;;9168781;19;19931;-68
2023/04/06 13:16:05;;;;;;;;;;;15.90;57.60;;;;;;9174282;19;20355;-68
2023/04/06 13:19:10;;;;;;;;;;;15.90;57.70;;;;;;9169827;19;19922;-68
2023/04/06 13:22:18;;;;;;;;;;;15.80;57.60;;;;;;9172336;19;19922;-68
2023/04/06 13:25:22;;;;;;;;;;;15.80;57.60;;;;;;9172302;19;19934;-68
2023/04/06 13:28:28;;;;;;;;;;;15.80;57.70;;;;;;9171358;19;19919;-68
2023/04/06 13:31:32;;;;;;;;;;;15.70;57.60;;;;;;9172868;19;19934;-69
2023/04/06 13:34:37;;;;;;;;;;;15.70;57.70;;;;;;9171922;19;20256;-68
2023/04/06 13:37:43;;;;;;;;;;;15.60;57.60;;;;;;9166942;19;19926;-68
2023/04/06 13:40:49;;;;;;;;;;;15.50;57.60;;;;;;9171039;19;19914;-69
2023/04/06 13:43:53;;;;;;;;;;;15.40;57.60;;;;;;9170692;19;20261;-68
2023/04/06 13:46:59;;;;;;;;;;;15.40;57.70;;;;;;9169523;19;19915;-69
2023/04/06 13:50:03;;;;;;;;;;;15.30;57.70;;;;;;9175240;19;19924;-68
2023/04/06 13:53:11;;;;;;;;;;;15.30;57.70;;;;;;9172567;19;20341;-68
2023/04/06 13:56:14;;;;;;;;;;;15.20;57.60;;;;;;9175860;19;19923;-69
2023/04/06 13:59:20;;;;;;;;;;;15.20;57.70;;;;;;9170850;19;19922;-68
2023/04/06 14:02:26;;;;;;;;;;;15.10;57.70;;;;;;9166099;19;19923;-68
2023/04/06 14:05:33;;;;;;;;;;;15.10;57.70;;;;;;9171443;19;19938;-67
2023/04/06 14:08:39;;;;;;;;;;;15.10;57.80;;;;;;9177401;19;19921;-68
2023/04/06 14:11:45;;;;;;;;;;;15.10;57.90;;;;;;9182309;19;20429;-68
2023/04/06 14:14:48;;;;;;;;;;;15.00;57.60;;;;;;9181869;19;20351;-68
2023/04/06 14:17:54;;;;;;;;;;;14.90;57.60;;;;;;9180305;19;19934;-68
2023/04/06 14:20:58;;;;;;;;;;;14.90;57.70;;;;;;9181492;19;20287;-68
2023/04/06 14:24:08;;;;;;;;;;;14.80;57.60;;;;;;9182136;19;19926;-69
2023/04/06 14:27:12;;;;;;;;;;;14.80;57.60;;;;;;9183007;19;19919;-68
2023/04/06 14:30:18;;;;;;;;;;;14.70;57.70;;;;;;9184388;19;19926;-68
2023/04/06 14:33:22;;;;;;;;;;;14.70;57.70;;;;;;9183158;19;19926;-68
2023/04/06 14:36:29;;;;;;;;;;;14.60;57.70;;;;;;9180470;19;19907;-69
2023/04/06 14:39:35;;;;;;;;;;;14.60;57.70;;;;;;9182083;19;19926;-68
2023/04/06 14:42:41;;;;;;;;;;;14.50;57.70;;;;;;9181062;19;20002;-68
2023/04/06 14:45:46;;;;;;;;;;;14.40;57.70;;;;;;9175626;19;20384;-68
2023/04/06 14:48:52;;;;;;;;;;;14.30;57.70;;;;;;9179165;19;19922;-68
2023/04/06 14:51:56;;;;;;;;;;;14.20;57.70;;;;;;9181556;19;19923;-68
2023/04/06 14:55:04;;;;;;;;;;;14.10;57.80;;;;;;9180654;19;19918;-68
2023/04/06 14:58:08;;;;;;;;;;;14.10;57.90;;;;;;9176797;19;19919;-68
2023/04/06 15:01:14;;;;;;;;;;;14.00;57.90;;;;;;9180741;19;19914;-68
2023/04/06 15:04:18;;;;;;;;;;;13.90;57.90;;;;;;9173862;19;19923;-68
2023/04/06 15:07:24;;;;;;;;;;;13.90;58.00;;;;;;9179960;19;19919;-68
2023/04/06 15:10:30;;;;;;;;;;;13.70;58.00;;;;;;9178803;19;20017;-68
2023/04/06 15:13:36;;;;;;;;;;;13.70;58.20;;;;;;9180547;19;19922;-68
2023/04/06 15:16:40;;;;;;;;;;;13.60;58.20;;;;;;9179076;19;20333;-68
2023/04/06 15:19:46;;;;;;;;;;;13.50;58.20;;;;;;9179107;19;19922;-68
2023/04/06 15:22:49;;;;;;;;;;;13.30;58.30;;;;;;9179226;19;19918;-68
2023/04/06 15:25:58;;;;;;;;;;;13.20;58.40;;;;;;9180076;19;19918;-68
2023/04/06 15:29:02;;;;;;;;;;;13.10;58.40;;;;;;9179737;19;19914;-68
2023/04/06 15:32:08;;;;;;;;;;;13.00;58.50;;;;;;9179686;19;19934;-68
2023/04/06 15:35:12;;;;;;;;;;;13.00;58.60;;;;;;9178019;19;19933;-68
2023/04/06 15:38:18;;;;;;;;;;;12.80;58.60;;;;;;9175995;19;19925;-68
2023/04/06 15:41:25;;;;;;;;;;;12.80;58.70;;;;;;9174288;19;19927;-68
2023/04/06 15:44:31;;;;;;;;;;;12.70;58.70;;;;;;9179332;19;19952;-68
2023/04/06 15:47:35;;;;;;;;;;;12.60;58.80;;;;;;9178921;19;19949;-68
2023/04/06 15:50:41;;;;;;;;;;;12.60;58.90;;;;;;9179106;19;19921;-68
2023/04/06 15:53:45;;;;;;;;;;;12.50;58.90;;;;;;9177913;19;19929;-68
2023/04/06 15:56:54;;;;;;;;;;;12.40;58.90;;;;;;9176548;19;19922;-68
2023/04/06 15:59:58;;;;;;;;;;;12.40;59.00;;;;;;9178718;19;19926;-68
2023/04/06 16:03:04;;;;;;;;;;;12.30;59.00;;;;;;9173367;19;19919;-68
2023/04/06 16:06:08;;;;;;;;;;;12.20;59.00;;;;;;9178323;19;20293;-67
2023/04/06 16:09:14;;;;;;;;;;;12.20;59.10;;;;;;9174822;19;19914;-68
2023/04/06 16:12:21;;;;;;;;;;;12.10;59.20;;;;;;9178210;19;19911;-68
2023/04/06 16:15:27;;;;;;;;;;;12.00;59.20;;;;;;9177623;19;19936;-68
2023/04/06 16:18:31;;;;;;;;;;;12.00;59.30;;;;;;9176678;19;20459;-68
2023/04/06 16:21:40;;;;;;;;;;;11.90;59.30;;;;;;9177973;19;19950;-69
2023/04/06 16:24:44;;;;;;;;;;;11.80;59.40;;;;;;9173569;19;19938;-69
2023/04/06 16:27:53;;;;;;;;;;;11.80;59.40;;;;;;9172148;19;21083;-69
2023/04/06 16:30:57;;;;;;;;;;;11.70;59.40;;;;;;9171379;19;20304;-69
2023/04/06 16:34:03;;;;;;;;;;;11.70;59.50;;;;;;9168515;19;20296;-69
2023/04/06 16:37:07;;;;;;;;;;;11.60;59.50;;;;;;9157802;19;19987;-69
2023/04/06 16:40:13;;;;;;;;;;;11.60;59.60;;;;;;9162437;19;20432;-69
2023/04/06 16:43:19;;;;;;;;;;;11.50;59.60;;;;;;9162823;19;19923;-69
2023/04/06 16:46:30;;;;;;;;;;;11.50;59.70;;;;;;9167544;19;20337;-69
2023/04/06 16:49:33;;;;;;;;;;;11.50;59.80;;;;;;9167224;19;19919;-68
2023/04/06 16:52:40;;;;;;;;;;;11.40;59.80;;;;;;9170545;19;19930;-68
2023/04/06 16:55:44;;;;;;;;;;;11.40;59.80;;;;;;9168317;19;19934;-66
2023/04/06 16:58:53;;;;;;;;;;;11.30;59.90;;;;;;9164585;19;19929;-67
2023/04/06 17:01:56;;;;;;;;;;;11.30;59.90;;;;;;9168387;19;19970;-66
2023/04/06 17:05:02;;;;;;;;;;;11.20;59.90;;;;;;9165899;19;19915;-67
2023/04/06 17:08:06;;;;;;;;;;;11.20;60.00;;;;;;9167572;19;19926;-66
2023/04/06 17:11:12;;;;;;;;;;;11.10;60.00;;;;;;9176562;19;19930;-67
2023/04/06 17:14:19;;;;;;;;;;;11.10;60.10;;;;;;9177186;19;19952;-66
2023/04/06 17:17:25;;;;;;;;;;;11.10;60.20;;;;;;9176207;19;19923;-69
2023/04/06 17:20:29;;;;;;;;;;;11.00;60.20;;;;;;9176993;19;19922;-66
2023/04/06 17:23:36;;;;;;;;;;;11.00;60.90;;;;;;9170993;19;19923;-66
2023/04/06 17:26:39;;;;;;;;;;;11.00;60.40;;;;;;9169593;19;19923;-66
2023/04/06 17:29:47;;;;;;;;;;;10.90;60.40;;;;;;9166727;19;19941;-66
2023/04/06 17:32:51;;;;;;;;;;;10.90;60.50;;;;;;9168608;19;19918;-66
2023/04/06 17:35:57;;;;;;;;;;;10.90;60.50;;;;;;9167445;19;19923;-66
2023/04/06 17:39:02;;;;;;;;;;;10.80;60.50;;;;;;9170250;19;19922;-66
2023/04/06 17:42:08;;;;;;;;;;;10.80;60.50;;;;;;9176881;19;19923;-66
2023/04/06 17:45:13;;;;;;;;;;;10.70;60.60;;;;;;9173344;19;19960;-67
2023/04/06 17:48:20;;;;;;;;;;;10.70;60.60;;;;;;9175846;19;20660;-67
2023/04/06 17:51:24;;;;;;;;;;;10.70;60.70;;;;;;9174840;19;20337;-67
2023/04/06 17:54:30;;;;;;;;;;;10.70;60.80;;;;;;9176557;19;20240;-67
2023/04/06 17:57:35;;;;;;;;;;;10.60;60.80;;;;;;9174022;19;19925;-67
2023/04/06 18:00:43;;;;;;;;;;;10.60;60.90;;;;;;9175880;19;20012;-67
2023/04/06 18:03:47;;;;;;;;;;;10.50;60.90;;;;;;9173673;19;20494;-66
2023/04/06 18:06:53;;;;;;;;;;;10.50;61.00;;;;;;9179892;19;19929;-67
2023/04/06 18:09:57;;;;;;;;;;;10.40;61.00;;;;;;9173504;19;19926;-67
2023/04/06 18:13:03;;;;;;;;;;;10.40;61.00;;;;;;9176574;19;19919;-66